Time;durP1;ratioP1;P1;durP2;ratioP2;P2;SDS_P1;SDS_P2;PMS_P1;PMS_P2;Temp;Humidity;BMP_temperature;BMP_pressure;BME280_temperature;BME280_humidity;BME280_pressure;Samples;Min_cycle;Max_cycle;Signal;HPM_P1;HPM_P2
2021/06/24 00:02:02;;;;;;;30.00;5.08;;;;;;;23.41;76.39;99868.70;1696924;84;21725;-86
2021/06/24 00:05:08;;;;;;;26.05;4.97;;;;;;;23.34;76.56;99870.91;1680092;84;21354;-86
2021/06/24 00:08:14;;;;;;;28.38;4.87;;;;;;;23.31;76.79;99863.07;1696994;84;21278;-87
2021/06/24 00:11:20;;;;;;;24.25;5.25;;;;;;;23.29;76.87;99865.83;1696896;84;21329;-86
2021/06/24 00:14:26;;;;;;;27.22;6.37;;;;;;;23.27;76.87;99868.06;1696372;84;21329;-87
2021/06/24 00:17:31;;;;;;;21.02;4.90;;;;;;;23.24;76.81;99865.25;1696940;84;21153;-86
2021/06/24 00:20:36;;;;;;;20.12;5.10;;;;;;;23.20;76.71;99860.79;1712365;83;21313;-86
2021/06/24 00:23:42;;;;;;;24.00;4.78;;;;;;;23.18;76.73;99861.59;1726325;83;21191;-86
2021/06/24 00:26:46;;;;;;;31.75;5.47;;;;;;;23.17;76.52;99859.92;1726505;83;21792;-86
2021/06/24 00:29:52;;;;;;;26.23;5.75;;;;;;;23.17;76.53;99856.30;1726409;83;21305;-86
2021/06/24 00:32:58;;;;;;;40.70;5.25;;;;;;;23.18;76.54;99858.80;1726191;83;21337;-86
2021/06/24 00:36:03;;;;;;;25.40;4.75;;;;;;;23.18;76.47;99861.59;1726393;83;21182;-86
2021/06/24 00:39:08;;;;;;;29.48;5.85;;;;;;;23.17;76.41;99858.53;1726485;83;21238;-86
2021/06/24 00:42:13;;;;;;;25.15;5.15;;;;;;;23.17;76.42;99855.73;1726510;83;21289;-86
2021/06/24 00:45:19;;;;;;;34.48;5.72;;;;;;;23.16;76.41;99858.81;1726360;83;21555;-86
2021/06/24 00:48:24;;;;;;;30.90;5.90;;;;;;;23.15;76.45;99859.92;1726448;83;21332;-86
2021/06/24 00:51:29;;;;;;;27.50;4.78;;;;;;;23.14;76.40;99849.30;1726507;83;21290;-86
2021/06/24 00:54:35;;;;;;;22.87;4.53;;;;;;;23.14;76.05;99854.88;1725830;83;21297;-87
2021/06/24 00:57:41;;;;;;;18.80;5.92;;;;;;;23.15;75.70;99842.63;1726502;83;21777;-86
2021/06/24 01:00:48;;;;;;;29.37;5.62;;;;;;;23.15;75.35;99839.84;1726966;82;21329;-87
2021/06/24 01:03:54;;;;;;;17.82;4.45;;;;;;;23.14;75.18;99838.14;1726078;83;21310;-86
2021/06/24 01:07:00;;;;;;;20.55;5.60;;;;;;;23.14;75.03;99843.72;1726612;83;21811;-86
2021/06/24 01:10:06;;;;;;;24.92;5.25;;;;;;;23.14;74.91;99845.11;1724795;83;22218;-86
2021/06/24 01:13:12;;;;;;;26.85;5.80;;;;;;;23.12;74.94;99830.61;1726428;83;21282;-86
2021/06/24 01:16:17;;;;;;;29.25;5.90;;;;;;;23.12;74.93;99828.38;1726439;83;21474;-86
2021/06/24 01:19:22;;;;;;;32.23;6.58;;;;;;;23.09;74.93;99820.54;1726309;83;21223;-86
2021/06/24 01:22:28;;;;;;;26.95;4.70;;;;;;;23.05;75.03;99819.39;1731178;82;21736;-86
2021/06/24 01:25:35;;;;;;;27.42;5.80;;;;;;;22.99;75.05;99827.45;1734343;83;21316;-86
2021/06/24 01:28:41;;;;;;;23.07;4.65;;;;;;;22.94;75.22;99828.27;1734473;83;21321;-86
2021/06/24 01:31:47;;;;;;;22.27;4.70;;;;;;;22.87;75.30;99830.44;1734527;83;21234;-86
2021/06/24 01:34:52;;;;;;;24.95;5.70;;;;;;;22.83;75.31;99832.08;1734281;83;21732;-86
2021/06/24 01:37:59;;;;;;;25.30;5.17;;;;;;;22.78;75.38;99822.29;1732868;82;21257;-86
2021/06/24 01:41:05;;;;;;;28.90;5.25;;;;;;;22.73;75.36;99822.26;1734567;83;21281;-86
2021/06/24 01:44:11;;;;;;;23.67;4.80;;;;;;;22.68;75.48;99823.89;1734581;83;21836;-86
2021/06/24 01:47:17;;;;;;;27.82;6.35;;;;;;;22.62;75.50;99823.55;1734588;83;21282;-86
2021/06/24 01:50:24;;;;;;;23.65;5.10;;;;;;;22.59;75.61;99821.31;1733713;82;21174;-86
2021/06/24 01:53:30;;;;;;;25.85;4.97;;;;;;;22.58;75.57;99819.61;1734426;83;21309;-86
2021/06/24 01:56:36;;;;;;;19.40;4.67;;;;;;;22.57;75.45;99816.55;1734471;83;21296;-86
2021/06/24 01:59:42;;;;;;;30.43;5.20;;;;;;;22.56;75.30;99815.43;1734415;83;21309;-86
2021/06/24 02:02:49;;;;;;;23.12;5.42;;;;;;;22.56;75.16;99819.61;1734508;83;21285;-86
2021/06/24 02:05:57;;;;;;;17.73;4.37;;;;;;;22.53;75.13;99818.19;1733382;83;21198;-86
2021/06/24 02:09:03;;;;;;;26.30;6.20;;;;;;;22.53;75.01;99824.31;1734577;83;21858;-86
2021/06/24 02:12:09;;;;;;;16.70;5.08;;;;;;;22.51;74.81;99830.72;1734515;83;21760;-86
2021/06/24 02:15:19;;;;;;;24.57;4.50;;;;;;;22.50;74.66;99826.26;1734437;83;21853;-86
2021/06/24 02:18:23;;;;;;;21.57;4.55;;;;;;;22.54;74.34;99829.64;1734486;83;21772;-86
2021/06/24 02:21:29;;;;;;;20.02;4.25;;;;;;;22.59;74.13;99826.89;1732125;82;21305;-86
2021/06/24 02:24:36;;;;;;;23.98;4.58;;;;;;;22.66;73.87;99823.86;1726456;83;21322;-86
2021/06/24 02:27:42;;;;;;;27.25;4.20;;;;;;;22.74;73.41;99819.19;1726453;83;21286;-86
2021/06/24 02:31:04;;;;;;;11.22;3.90;;;;;;;22.83;72.85;99824.55;1726486;83;21839;-86
2021/06/24 02:34:10;;;;;;;16.45;3.45;;;;;;;22.94;72.28;99830.50;1726362;83;21211;-86
2021/06/24 02:37:22;;;;;;;17.90;4.10;;;;;;;23.08;71.50;99835.05;1726373;83;21171;-86
2021/06/24 02:40:45;;;;;;;13.90;3.85;;;;;;;23.20;70.83;99843.22;1724875;83;21743;-86
2021/06/24 02:43:52;;;;;;;16.60;3.90;;;;;;;23.33;70.20;99842.70;1726401;83;21346;-86
2021/06/24 02:46:57;;;;;;;15.05;3.80;;;;;;;23.46;69.48;99836.62;1726410;83;21178;-85
2021/06/24 02:50:02;;;;;;;11.18;3.37;;;;;;;23.61;69.33;99836.40;1726337;83;21302;-86
2021/06/24 02:53:09;;;;;;;24.27;3.72;;;;;;;23.78;68.49;99832.87;1707123;82;21313;-86
2021/06/24 02:56:16;;;;;;;18.30;4.17;;;;;;;23.94;67.91;99827.59;1726426;83;21314;-86
2021/06/24 02:59:20;;;;;;;15.58;3.87;;;;;;;24.12;67.55;99841.59;1726376;83;22159;-85
2021/06/24 03:02:26;;;;;;;19.98;4.20;;;;;;;24.28;66.69;99838.80;1726467;83;21891;-86
2021/06/24 03:05:31;;;;;;;14.05;3.40;;;;;;;24.43;66.30;99844.46;1726203;83;21282;-86
2021/06/24 03:08:38;;;;;;;29.37;4.22;;;;;;;24.51;65.87;99842.48;1726855;81;21388;-86
2021/06/24 03:11:48;;;;;;;13.98;2.80;;;;;;;24.61;65.32;99838.88;1756392;81;21288;-86
2021/06/24 03:14:55;;;;;;;19.65;3.72;;;;;;;24.68;65.39;99845.84;1753898;81;21711;-86
2021/06/24 03:18:00;;;;;;;23.20;3.33;;;;;;;24.77;65.03;99853.11;1720079;83;21273;-86
2021/06/24 03:21:07;;;;;;;15.28;3.20;;;;;;;24.84;64.87;99851.41;1756411;80;21225;-86
2021/06/24 03:24:13;;;;;;;20.45;3.75;;;;;;;24.96;64.24;99860.36;1710054;83;21303;-86
2021/06/24 03:27:20;;;;;;;20.60;3.72;;;;;;;25.06;63.68;99854.73;1693091;83;21161;-86
2021/06/24 03:30:41;;;;;;;18.98;3.40;;;;;;;25.12;63.13;99853.63;1691397;85;21333;-86
2021/06/24 03:33:47;;;;;;;18.17;3.75;;;;;;;25.29;62.79;99855.28;1726984;81;21194;-87
2021/06/24 03:36:51;;;;;;;20.88;3.40;;;;;;;25.46;62.08;99845.98;1725467;83;21308;-86
2021/06/24 03:39:58;;;;;;;20.32;4.22;;;;;;;25.60;61.82;99847.61;1728004;81;21314;-86
2021/06/24 03:43:03;;;;;;;30.37;4.10;;;;;;;25.70;61.53;99845.59;1726350;83;21287;-86
2021/06/24 03:46:10;;;;;;;28.30;3.70;;;;;;;25.86;60.91;99842.73;1756344;81;21134;-86
2021/06/24 03:49:15;;;;;;;17.12;3.30;;;;;;;25.99;59.74;99844.91;1716340;83;21198;-86
2021/06/24 03:52:20;;;;;;;20.17;4.60;;;;;;;26.07;59.61;99845.70;1757124;80;21912;-87
2021/06/24 03:55:43;;;;;;;22.52;4.30;;;;;;;26.02;58.97;99851.88;1695518;83;21906;-86
2021/06/24 03:58:51;;;;;;;17.30;3.77;;;;;;;25.83;58.81;99851.17;1726246;83;21759;-87
2021/06/24 04:01:56;;;;;;;24.67;3.58;;;;;;;25.54;59.10;99843.97;1673936;85;21291;-85
2021/06/24 04:05:03;;;;;;;17.95;3.52;;;;;;;25.27;59.55;99837.95;1729820;82;21268;-86
2021/06/24 04:08:10;;;;;;;20.45;4.00;;;;;;;24.97;60.95;99835.45;1752484;81;21173;-87
2021/06/24 04:11:17;;;;;;;15.20;3.80;;;;;;;24.73;61.44;99850.03;1736177;81;21835;-86
2021/06/24 04:14:25;;;;;;;28.32;4.17;;;;;;;24.54;62.37;99853.12;1727461;82;21196;-86
2021/06/24 04:17:41;;;;;;;17.23;3.90;;;;;;;24.39;62.61;99857.31;1726295;83;21304;-86
2021/06/24 04:20:59;;;;;;;17.70;3.67;;;;;;;24.23;63.41;99846.09;1726379;83;21158;-86
2021/06/24 04:24:05;;;;;;;17.95;3.90;;;;;;;24.12;63.46;99866.73;1726706;81;21268;-86
2021/06/24 04:27:10;;;;;;;31.10;4.72;;;;;;;24.01;63.90;99872.03;1726136;83;21280;-85
2021/06/24 04:30:16;;;;;;;16.42;4.03;;;;;;;23.90;64.07;99854.41;1726186;83;21189;-86
2021/06/24 04:33:21;;;;;;;24.25;4.30;;;;;;;23.90;64.41;99859.13;1742912;81;21253;-86
2021/06/24 04:36:44;;;;;;;33.78;3.80;;;;;;;23.90;64.73;99861.40;1713164;83;21998;-86
2021/06/24 04:39:52;;;;;;;19.55;3.92;;;;;;;23.91;65.16;99860.84;1677815;84;21305;-86
2021/06/24 04:42:59;;;;;;;15.90;4.08;;;;;;;23.96;65.36;99849.67;1659917;86;21731;-86
2021/06/24 04:46:06;;;;;;;18.12;4.30;;;;;;;23.97;65.19;99855.53;1664097;86;21301;-86
2021/06/24 04:49:11;;;;;;;18.98;4.65;;;;;;;24.00;65.56;99861.98;1666208;86;21826;-86
2021/06/24 04:52:24;;;;;;;20.60;4.12;;;;;;;23.98;65.62;99848.83;1651886;85;21256;-87
2021/06/24 04:55:38;;;;;;;18.77;4.25;;;;;;;23.90;66.16;99850.75;1662747;86;21174;-86
2021/06/24 04:58:41;;;;;;;28.15;4.60;;;;;;;23.85;66.30;99829.80;1666705;84;21205;-87
2021/06/24 05:02:05;;;;;;;16.50;4.08;;;;;;;23.82;66.73;99849.92;1664143;86;21352;-86
2021/06/24 05:05:27;;;;;;;21.17;4.20;;;;;;;23.75;66.79;99824.19;1664835;86;21736;-86
2021/06/24 05:08:34;;;;;;;19.62;3.87;;;;;;;23.69;67.30;99846.52;1648742;86;21809;-86
2021/06/24 05:11:40;;;;;;;24.80;4.42;;;;;;;23.69;67.48;99840.93;1665036;86;21296;-86
2021/06/24 05:14:45;;;;;;;34.78;4.75;;;;;;;23.70;67.38;99862.15;1664798;86;21953;-86
2021/06/24 05:17:52;;;;;;;21.20;4.62;;;;;;;23.69;67.79;99863.27;1662917;86;21210;-86
2021/06/24 05:20:59;;;;;;;25.40;4.08;;;;;;;23.68;68.00;99857.41;1665589;85;21166;-86
2021/06/24 05:24:04;;;;;;;17.35;3.52;;;;;;;23.66;67.01;99844.27;1665049;86;21225;-86
2021/06/24 05:27:11;;;;;;;32.17;4.12;;;;;;;23.66;67.10;99861.02;1664664;86;21150;-86
2021/06/24 05:30:17;;;;;;;25.00;5.90;;;;;;;23.66;67.03;99875.53;1665551;86;21312;-86
2021/06/24 05:33:24;;;;;;;21.57;4.37;;;;;;;23.65;67.16;99873.86;1665985;86;21766;-87
2021/06/24 05:36:31;;;;;;;38.35;5.95;;;;;;;23.62;67.63;99872.97;1667075;86;21186;-86
2021/06/24 05:39:34;;;;;;;27.17;4.15;;;;;;;23.61;67.36;99876.31;1674218;84;21180;-87
2021/06/24 05:42:39;;;;;;;30.17;4.85;;;;;;;23.62;67.73;99891.98;1686367;85;21295;-86
2021/06/24 05:45:46;;;;;;;26.65;4.62;;;;;;;23.61;67.72;99878.27;1686247;85;21180;-86
2021/06/24 05:48:51;;;;;;;27.07;5.08;;;;;;;23.58;67.64;99876.88;1688405;85;21314;-86
2021/06/24 05:55:02;;;;;;;35.43;5.00;;;;;;;23.53;67.61;99864.86;1848237;76;27982;-82
2021/06/24 05:58:07;;;;;;;22.75;4.75;;;;;;;23.47;67.29;99882.95;1764127;80;21291;-80
2021/06/24 06:01:11;;;;;;;20.02;4.28;;;;;;;23.39;67.86;99889.63;1761007;80;21145;-81
2021/06/24 06:04:18;;;;;;;26.27;5.50;;;;;;;23.30;68.07;99883.72;1763784;80;21312;-80
2021/06/24 06:07:24;;;;;;;28.87;3.72;;;;;;;23.24;68.71;99887.56;1734269;82;21533;-81
2021/06/24 06:10:29;;;;;;;23.70;5.50;;;;;;;23.23;69.00;99877.52;1731753;80;21569;-80
2021/06/24 06:13:43;;;;;;;23.10;4.28;;;;;;;23.26;69.38;99876.16;1740323;80;21188;-81
2021/06/24 06:16:49;;;;;;;21.23;4.35;;;;;;;23.36;69.32;99888.77;1732947;80;21144;-80
2021/06/24 06:19:55;;;;;;;27.55;4.92;;;;;;;23.48;68.88;99893.59;1728580;80;21216;-81
2021/06/24 06:23:01;;;;;;;39.53;5.00;;;;;;;23.60;68.74;99894.19;1740060;80;21323;-81
2021/06/24 06:26:07;;;;;;;40.50;5.75;;;;;;;23.75;68.03;99899.58;1762298;80;21300;-80
2021/06/24 06:29:12;;;;;;;42.53;6.17;;;;;;;23.86;67.15;99891.55;1757650;80;21248;-81
2021/06/24 06:32:17;;;;;;;27.10;4.50;;;;;;;23.90;66.11;99896.84;1723431;82;21769;-81
2021/06/24 06:35:23;;;;;;;23.32;4.80;;;;;;;23.97;65.77;99882.07;1740986;82;21251;-81
2021/06/24 06:42:47;;;;;;;55.08;6.78;;;;;;;24.16;66.23;99893.01;1729153;82;21260;-81
2021/06/24 06:45:53;;;;;;;43.42;7.03;;;;;;;24.29;65.33;99910.37;1732241;82;21264;-81
2021/06/24 06:49:00;;;;;;;39.35;7.55;;;;;;;24.41;64.22;99907.61;1737172;82;21235;-81
2021/06/24 06:52:05;;;;;;;41.53;6.22;;;;;;;24.61;63.87;99897.59;1766981;80;21154;-81
2021/06/24 06:55:10;;;;;;;38.13;7.17;;;;;;;24.89;63.37;99898.95;1739599;80;21250;-81
2021/06/24 06:58:17;;;;;;;25.85;5.60;;;;;;;25.11;63.47;99900.09;1702929;83;21778;-81
2021/06/24 07:01:22;;;;;;;41.40;5.72;;;;;;;25.36;63.20;99904.25;1727340;82;21135;-81
2021/06/24 07:05:03;;;;;;;30.90;5.35;;;;;;;25.54;62.13;99915.38;1724202;82;21228;-81
2021/06/24 07:08:09;;;;;;;38.90;7.65;;;;;;;25.69;61.33;99919.55;1723617;82;21247;-81
2021/06/24 07:11:16;;;;;;;48.13;7.00;;;;;;;25.77;60.21;99928.50;1722422;82;21132;-81
2021/06/24 07:14:21;;;;;;;40.78;5.67;;;;;;;25.87;59.19;99920.05;1724865;82;21235;-81
2021/06/24 07:17:26;;;;;;;36.08;6.05;;;;;;;26.05;59.53;99924.17;1715170;82;21191;-81
2021/06/24 07:20:32;;;;;;;33.33;5.70;;;;;;;26.28;58.92;99914.23;1739001;82;21263;-80
2021/06/24 07:23:38;;;;;;;42.75;7.10;;;;;;;26.49;58.69;99912.45;1717859;82;21782;-81
2021/06/24 07:26:47;;;;;;;;;;;;;;;26.67;59.03;99929.12;1724970;82;21160;-81
2021/06/24 07:29:52;;;;;;;37.93;6.60;;;;;;;26.83;58.32;99931.83;1734958;82;20243;-80
2021/06/24 07:32:58;;;;;;;37.15;5.70;;;;;;;26.88;57.41;99934.02;1743585;81;21830;-80
2021/06/24 07:36:03;;;;;;;36.38;7.35;;;;;;;26.96;57.74;99939.00;1733641;81;21173;-81
2021/06/24 07:39:09;;;;;;;51.92;8.15;;;;;;;27.06;56.91;99938.65;1702696;82;21316;-81
2021/06/24 07:42:16;;;;;;;41.30;7.03;;;;;;;27.05;56.11;99937.78;1706340;82;21311;-81
2021/06/24 07:45:22;;;;;;;56.90;8.03;;;;;;;26.99;57.42;99931.95;1718597;82;21825;-80
2021/06/24 07:48:28;;;;;;;48.42;7.12;;;;;;;26.99;56.63;99937.56;1727431;82;21798;-80
2021/06/24 07:51:33;;;;;;;39.05;7.17;;;;;;;27.07;56.63;99931.33;1722448;82;21287;-80
2021/06/24 07:54:38;;;;;;;40.95;6.58;;;;;;;27.10;56.93;99930.78;1725490;82;21132;-81
2021/06/24 07:57:45;;;;;;;41.92;7.72;;;;;;;27.15;57.28;99931.30;1755846;80;21244;-80
2021/06/24 08:00:52;;;;;;;66.22;8.18;;;;;;;27.21;55.27;99930.11;1737388;81;21137;-81
2021/06/24 08:03:58;;;;;;;47.33;7.30;;;;;;;27.31;56.67;99941.23;1761881;80;21758;-81
2021/06/24 08:07:03;;;;;;;43.45;7.30;;;;;;;27.54;55.60;99929.75;1719210;83;21328;-80
2021/06/24 08:10:08;;;;;;;46.37;7.42;;;;;;;27.91;55.30;99938.06;1733805;81;21280;-80
2021/06/24 08:13:14;;;;;;;51.15;8.15;;;;;;;27.91;55.30;99938.06;1720183;82;21252;-80
2021/06/24 08:16:19;;;;;;;45.83;7.87;;;;;;;28.38;55.17;99937.17;1735634;82;21246;-81
2021/06/24 08:19:25;;;;;;;40.92;7.80;;;;;;;28.38;55.17;99937.17;1764320;80;21263;-81
2021/06/24 08:22:31;;;;;;;53.33;7.60;;;;;;;28.69;53.86;99943.72;1733726;82;21307;-81
2021/06/24 08:25:36;;;;;;;55.95;8.18;;;;;;;28.69;53.86;99943.72;1730911;82;21180;-80
2021/06/24 08:28:41;;;;;;;44.65;8.05;;;;;;;28.63;52.14;99950.58;1757172;80;21287;-80
2021/06/24 08:31:46;;;;;;;48.15;7.47;;;;;;;28.63;52.14;99950.58;1761114;80;21823;-80
2021/06/24 08:34:52;;;;;;;54.58;9.25;;;;;;;28.64;54.39;99966.31;1761479;80;21247;-81
2021/06/24 08:37:58;;;;;;;66.87;7.78;;;;;;;28.64;54.39;99966.31;1727078;82;21288;-80
2021/06/24 08:41:06;;;;;;;51.05;7.25;;;;;;;28.58;52.84;99969.77;1763912;80;21956;-80
2021/06/24 08:44:14;;;;;;;57.85;8.55;;;;;;;28.55;55.47;99967.56;1768033;80;21547;-80
2021/06/24 08:47:21;;;;;;;58.63;8.60;;;;;;;28.60;54.67;99967.48;1765258;80;21763;-81
2021/06/24 08:50:26;;;;;;;68.42;9.35;;;;;;;28.53;55.70;99964.23;1735514;80;21600;-80
2021/06/24 08:53:31;;;;;;;55.55;8.38;;;;;;;28.53;55.70;99964.23;1740682;81;21180;-81
2021/06/24 08:56:37;;;;;;;62.58;9.60;;;;;;;28.56;54.97;99977.70;1721994;82;21887;-81
2021/06/24 08:59:43;;;;;;;41.33;6.70;;;;;;;28.65;55.39;99964.59;1720254;83;21190;-80
2021/06/24 09:02:54;;;;;;;51.02;8.85;;;;;;;28.65;55.39;99964.59;1732319;82;21244;-80
2021/06/24 09:06:01;;;;;;;54.95;8.78;;;;;;;28.65;54.97;99970.78;1712690;83;21288;-80
2021/06/24 09:09:06;;;;;;;47.43;7.37;;;;;;;28.73;56.68;99957.45;1704723;83;21251;-80
2021/06/24 09:12:17;;;;;;;41.68;7.08;;;;;;;28.86;56.59;99966.52;1713357;83;21727;-80
2021/06/24 09:15:21;;;;;;;;;;;;;;;28.93;56.35;99954.29;1739343;81;21255;-80
2021/06/24 09:18:31;;;;;;;61.23;8.08;;;;;;;29.03;56.74;99954.75;1712002;83;20296;-81
2021/06/24 09:21:38;;;;;;;49.20;7.40;;;;;;;29.03;57.62;99936.45;1714703;83;21267;-81
2021/06/24 09:24:51;;;;;;;53.42;8.30;;;;;;;29.03;57.62;99936.45;1727578;82;22457;-80
2021/06/24 09:27:57;;;;;;;56.48;8.45;;;;;;;29.15;58.19;99949.45;1721605;82;21264;-80
2021/06/24 09:31:03;;;;;;;59.25;9.10;;;;;;;29.31;56.92;99942.96;1726382;82;21269;-80
2021/06/24 09:34:17;;;;;;;65.37;8.73;;;;;;;29.50;54.99;99945.70;1734419;82;21136;-81
2021/06/24 09:37:22;;;;;;;56.20;8.08;;;;;;;29.70;53.70;99941.70;1708381;83;21308;-80
2021/06/24 09:40:28;;;;;;;45.75;7.47;;;;;;;30.05;54.74;99940.11;1737670;82;21228;-81
2021/06/24 09:43:41;;;;;;;54.58;8.68;;;;;;;30.23;51.14;99943.41;1713194;83;21249;-81
2021/06/24 09:46:47;;;;;;;64.25;9.83;;;;;;;30.23;51.14;99943.41;1724610;82;21165;-81
2021/06/24 09:49:55;;;;;;;62.55;9.48;;;;;;;30.28;50.83;99945.28;1722300;82;21714;-81
2021/06/24 09:53:19;;;;;;;51.40;8.75;;;;;;;30.41;49.50;99944.43;1703898;81;21275;-81
2021/06/24 09:56:38;;;;;;;48.50;8.05;;;;;;;30.46;51.11;99955.59;1713338;82;21153;-81
2021/06/24 09:59:46;;;;;;;45.78;7.03;;;;;;;30.60;51.56;99961.78;1753761;80;21277;-81
2021/06/24 10:03:13;;;;;;;47.88;7.03;;;;;;;30.71;49.22;99958.41;1735010;82;21134;-82
2021/06/24 10:06:17;;;;;;;50.70;7.45;;;;;;;30.72;49.19;99954.43;1663856;86;21303;-82
2021/06/24 10:09:24;;;;;;;59.18;8.15;;;;;;;30.80;50.37;99951.43;1666489;86;21334;-82
2021/06/24 10:12:30;;;;;;;50.40;8.03;;;;;;;30.93;51.54;99955.36;1645991;87;21166;-82
2021/06/24 10:15:38;;;;;;;54.53;7.80;;;;;;;31.13;51.56;99953.42;1734077;81;21149;-81
2021/06/24 10:18:43;;;;;;;75.05;8.00;;;;;;;31.32;51.41;99958.89;1723800;82;21271;-82
2021/06/24 10:21:48;;;;;;;65.52;8.10;;;;;;;31.38;49.00;99960.99;1739439;81;22206;-81
2021/06/24 10:25:03;;;;;;;73.28;9.95;;;;;;;31.29;49.48;99960.39;1735394;82;21133;-81
2021/06/24 10:28:08;;;;;;;63.85;8.68;;;;;;;31.19;49.04;99966.83;1733508;82;21281;-81
2021/06/24 10:31:13;;;;;;;68.42;10.15;;;;;;;30.98;50.19;99994.77;1732493;81;21351;-82
2021/06/24 10:34:20;;;;;;;53.90;9.05;;;;;;;30.80;50.56;99971.20;1732265;81;21284;-82
2021/06/24 10:37:28;;;;;;;52.98;9.53;;;;;;;30.70;49.88;99961.53;1734452;82;21152;-82
2021/06/24 10:40:44;;;;;;;52.08;8.90;;;;;;;30.64;51.06;99971.28;1747393;80;21208;-82
2021/06/24 10:43:53;;;;;;;37.70;9.08;;;;;;;30.61;51.31;99971.33;1720087;82;21188;-82
2021/06/24 10:47:11;;;;;;;52.95;10.00;;;;;;;30.53;51.50;99966.44;1722917;82;21732;-81
2021/06/24 10:50:41;;;;;;;56.75;10.28;;;;;;;30.42;51.84;99979.95;1736914;82;21272;-82
2021/06/24 10:53:46;;;;;;;59.50;9.78;;;;;;;30.36;53.22;99969.11;1737955;81;21358;-82
2021/06/24 10:56:53;;;;;;;59.63;10.72;;;;;;;30.34;54.39;99969.40;1736597;81;21201;-82
2021/06/24 10:59:59;;;;;;;64.25;9.68;;;;;;;30.40;54.48;99971.55;1747908;80;21176;-82
2021/06/24 11:03:05;;;;;;;57.08;10.08;;;;;;;30.55;55.14;99966.39;1753681;80;21292;-82
2021/06/24 11:06:29;;;;;;;73.60;9.63;;;;;;;30.68;53.77;99977.39;1747319;81;21299;-82
2021/06/24 11:09:35;;;;;;;62.43;9.50;;;;;;;30.74;55.22;99974.72;1741753;81;21901;-82
2021/06/24 11:13:14;;;;;;;38.92;7.33;;;;;;;30.77;54.14;99977.47;1717280;82;21287;-82
2021/06/24 11:16:25;;;;;;;62.83;9.58;;;;;;;30.83;55.37;99975.38;1721056;82;21339;-81
2021/06/24 11:19:31;;;;;;;54.67;8.53;;;;;;;30.90;55.70;99989.88;1747064;81;21165;-81
2021/06/24 11:22:57;;;;;;;54.95;7.75;;;;;;;30.84;55.02;99988.34;1729972;82;21281;-81
2021/06/24 11:26:18;;;;;;;53.92;8.60;;;;;;;30.71;54.17;99998.52;1753566;81;21353;-81
2021/06/24 11:29:39;;;;;;;58.95;8.65;;;;;;;30.41;53.19;100002.84;1736329;81;21805;-81
2021/06/24 11:32:46;;;;;;;46.05;8.60;;;;;;;30.20;53.23;100001.02;1753244;81;21142;-81
2021/06/24 11:35:58;;;;;;;49.35;7.85;;;;;;;29.89;52.18;99998.81;1723394;82;21650;-81
2021/06/24 11:38:59;;;;;;;58.13;10.25;;;;;;;29.67;53.64;100013.61;1747115;81;21311;-81
2021/06/24 11:42:06;;;;;;;52.88;8.60;;;;;;;29.47;55.22;100016.78;1729088;82;21256;-81
2021/06/24 11:45:13;;;;;;;57.78;9.33;;;;;;;29.28;55.63;100014.84;1729681;82;21201;-81
2021/06/24 11:48:19;;;;;;;69.90;9.45;;;;;;;29.14;55.45;100015.37;1714029;83;21855;-81
2021/06/24 12:05:06;;;;;;;60.98;9.68;;;;;;;29.01;56.69;100024.02;1681604;85;21249;-81
2021/06/24 12:08:12;;;;;;;63.65;9.90;;;;;;;29.07;56.24;100021.95;1701855;83;21288;-81
2021/06/24 12:11:18;;;;;;;71.75;10.55;;;;;;;29.15;56.62;100017.61;1710428;84;21747;-81
2021/06/24 12:14:36;;;;;;;70.28;10.55;;;;;;;29.18;56.53;100019.82;1758346;81;22479;-81
2021/06/24 12:17:42;;;;;;;57.00;9.48;;;;;;;29.14;57.11;100022.41;1759751;81;21824;-81
2021/06/24 12:20:47;;;;;;;68.37;9.78;;;;;;;29.14;57.28;100028.04;1759908;81;21264;-82
2021/06/24 12:23:58;;;;;;;90.95;12.00;;;;;;;29.13;57.44;100016.52;1757966;81;21253;-81
2021/06/24 12:27:07;;;;;;;47.98;9.18;;;;;;;29.27;58.68;100013.75;1729694;83;21144;-81
2021/06/24 12:30:36;;;;;;;64.92;9.05;;;;;;;29.27;58.68;100013.75;1728678;83;21195;-81
2021/06/24 12:33:41;;;;;;;58.17;8.43;;;;;;;29.41;58.33;100023.66;1730092;83;21283;-81
2021/06/24 12:36:41;;;;;;;58.73;9.13;;;;;;;29.59;57.81;100029.81;1729833;83;21797;-81
2021/06/24 12:39:47;;;;;;;46.42;7.17;;;;;;;29.73;56.74;100017.99;1728028;83;21252;-81
2021/06/24 12:43:03;;;;;;;55.80;8.93;;;;;;;29.87;56.88;100008.72;1712379;82;21251;-81
2021/06/24 12:46:12;;;;;;;42.67;7.92;;;;;;;30.05;58.78;100004.39;1718717;83;21160;-81
2021/06/24 12:49:24;;;;;;;51.70;8.23;;;;;;;30.27;54.16;100007.09;1737185;82;21239;-81
2021/06/24 12:52:39;;;;;;;51.45;8.53;;;;;;;30.37;53.79;99992.76;1745547;81;21155;-81
2021/06/24 12:55:53;;;;;;;55.45;8.18;;;;;;;30.48;55.27;99993.36;1723390;82;21570;-81
2021/06/24 12:59:04;;;;;;;54.80;7.53;;;;;;;30.60;52.82;99990.83;1714483;83;21189;-81
2021/06/24 13:02:09;;;;;;;;;;;;;;;30.71;53.51;99973.94;1739502;81;21150;-81
2021/06/24 13:05:15;;;;;;;54.10;8.48;;;;;;;30.82;52.56;99970.31;1737290;80;20248;-81
2021/06/24 13:08:21;;;;;;;49.60;9.90;;;;;;;30.88;52.54;99964.80;1735032;81;21189;-81
2021/06/24 13:11:30;;;;;;;47.83;8.18;;;;;;;30.94;54.19;99966.33;1772274;79;21178;-81
2021/06/24 13:14:37;;;;;;;36.80;7.25;;;;;;;30.97;53.74;99969.94;1786369;79;21252;-81
2021/06/24 13:17:47;;;;;;;69.70;9.08;;;;;;;30.96;52.91;99974.47;1787460;80;21264;-81
2021/06/24 13:21:04;;;;;;;54.67;7.50;;;;;;;30.92;53.41;99993.23;1787874;80;21288;-81
2021/06/24 13:24:17;;;;;;;55.88;7.95;;;;;;;30.89;54.91;99992.45;1787740;80;21277;-81
2021/06/24 13:27:31;;;;;;;50.28;7.78;;;;;;;30.90;54.48;100002.58;1787969;80;21142;-81
2021/06/24 13:30:35;;;;;;;47.08;6.67;;;;;;;30.89;55.38;99993.28;1787449;80;21843;-82
2021/06/24 13:33:45;;;;;;;59.58;8.43;;;;;;;30.95;52.62;99986.34;1788066;80;21256;-82
2021/06/24 13:36:52;;;;;;;69.45;8.08;;;;;;;31.03;52.90;99987.58;1788064;80;21252;-81
2021/06/24 13:39:57;;;;;;;49.65;7.15;;;;;;;31.11;52.34;99993.87;1788044;80;21335;-82
2021/06/24 13:43:10;;;;;;;51.23;7.95;;;;;;;31.20;52.67;100001.84;1788035;80;21256;-81
2021/06/24 13:46:17;;;;;;;56.98;8.15;;;;;;;31.24;51.92;100011.34;1787885;79;21161;-81
2021/06/24 13:49:24;;;;;;;59.83;8.88;;;;;;;31.21;52.92;100020.45;1788065;80;21763;-81
2021/06/24 13:52:30;;;;;;;51.95;8.23;;;;;;;31.09;52.92;100022.17;1788010;80;21792;-81
2021/06/24 13:55:40;;;;;;;51.68;7.78;;;;;;;30.83;52.29;100021.97;1788057;80;21252;-81
2021/06/24 13:58:45;;;;;;;49.35;7.30;;;;;;;30.62;52.98;100020.14;1787723;80;21300;-81
2021/06/24 14:01:51;;;;;;;45.05;8.33;;;;;;;30.50;54.50;100022.11;1787113;80;21870;-81
2021/06/24 14:04:57;;;;;;;47.15;7.50;;;;;;;30.32;54.76;100020.25;1792326;80;21221;-81
2021/06/24 14:08:03;;;;;;;43.70;7.72;;;;;;;30.10;55.75;100018.12;1792693;80;21378;-81
2021/06/24 14:11:12;;;;;;;51.40;8.50;;;;;;;29.88;56.60;100039.44;1791588;80;21292;-81
2021/06/24 14:14:17;;;;;;;42.70;8.18;;;;;;;29.54;55.47;100054.69;1792581;80;21296;-81
2021/06/24 14:17:22;;;;;;;60.67;8.30;;;;;;;29.14;56.83;100051.97;1793648;80;21716;-81
2021/06/24 14:20:28;;;;;;;50.78;9.08;;;;;;;28.76;57.60;100063.21;1792124;80;21177;-81
2021/06/24 14:23:33;;;;;;;56.33;9.05;;;;;;;28.46;56.73;100067.83;1793766;80;21260;-81
2021/06/24 14:26:41;;;;;;;57.55;8.45;;;;;;;28.13;55.08;100064.83;1793796;80;21827;-81
2021/06/24 14:29:47;;;;;;;41.73;7.87;;;;;;;27.67;54.41;100069.52;1793711;80;21256;-81
2021/06/24 14:32:52;;;;;;;58.52;9.10;;;;;;;27.39;54.21;100077.36;1793645;79;21216;-82
2021/06/24 14:35:57;;;;;;;84.00;11.10;;;;;;;27.39;54.21;100077.36;1793630;80;21185;-81
2021/06/24 14:39:03;;;;;;;68.92;9.68;;;;;;;27.15;55.10;100078.67;1793681;80;21248;-81
2021/06/24 14:42:09;;;;;;;56.90;9.28;;;;;;;26.89;56.51;100076.55;1793650;80;21815;-81
2021/06/24 14:45:18;;;;;;;70.28;9.65;;;;;;;26.66;57.97;100081.72;1793724;80;21271;-81
2021/06/24 14:48:23;;;;;;;61.05;8.63;;;;;;;26.46;59.02;100063.61;1793649;80;21122;-81
2021/06/24 14:51:28;;;;;;;52.38;7.92;;;;;;;26.31;60.53;100063.08;1793688;80;21256;-81
2021/06/24 14:54:35;;;;;;;68.62;9.43;;;;;;;26.16;61.97;100057.51;1793607;80;21150;-81